Time;durP1;ratioP1;P1;durP2;ratioP2;P2;SDS_P1;SDS_P2;PMS_P1;PMS_P2;Temp;Humidity;BMP_temperature;BMP_pressure;BME280_temperature;BME280_humidity;BME280_pressure;Samples;Min_cycle;Max_cycle;Signal;HPM_P1;HPM_P2
2022/01/21 00:01:58;;;;;;;3.15;0.50;;;14.40;43.60;;;;;;5128935;28;20500;-65
2022/01/21 00:04:23;;;;;;;3.30;0.70;;;14.40;43.70;;;;;;5127886;28;20088;-66
2022/01/21 00:06:49;;;;;;;6.00;0.73;;;14.40;43.70;;;;;;5127797;28;20123;-65
2022/01/21 00:09:15;;;;;;;2.60;0.50;;;14.40;43.70;;;;;;5128155;28;20043;-66
2022/01/21 00:11:43;;;;;;;3.20;0.63;;;14.30;43.80;;;;;;5129493;28;20046;-64
2022/01/21 00:14:10;;;;;;;3.58;0.57;;;14.40;43.80;;;;;;5128129;28;20039;-64
2022/01/21 00:16:39;;;;;;;3.38;0.82;;;14.30;43.80;;;;;;5128137;28;20053;-65
2022/01/21 00:19:10;;;;;;;2.65;0.32;;;14.30;43.90;;;;;;5129284;27;20481;-65
2022/01/21 00:32:53;;;;;;;2.42;0.55;;;14.30;44.10;;;;;;5089563;27;20420;-64
2022/01/21 00:35:20;;;;;;;2.65;0.50;;;14.30;44.10;;;;;;5088103;28;20376;-66
2022/01/21 00:37:49;;;;;;;2.70;0.50;;;14.20;44.10;;;;;;5088396;28;20043;-64
2022/01/21 00:40:21;;;;;;;3.05;0.55;;;14.20;44.10;;;;;;5088392;28;20120;-65
2022/01/21 00:42:54;;;;;;;3.95;0.93;;;14.20;44.10;;;;;;5087857;28;20036;-64
2022/01/21 00:45:21;;;;;;;2.25;1.00;;;14.20;44.10;;;;;;5088177;28;20047;-64
2022/01/21 00:47:47;;;;;;;3.60;0.40;;;14.20;44.20;;;;;;5088109;28;20114;-65
2022/01/21 00:50:16;;;;;;;3.20;0.60;;;14.10;44.20;;;;;;5088197;28;20048;-66
2022/01/21 00:52:43;;;;;;;3.35;0.40;;;14.10;44.30;;;;;;5088934;28;20037;-66
2022/01/21 00:55:09;;;;;;;4.20;0.75;;;14.10;44.30;;;;;;5087593;28;20068;-64
2022/01/21 00:57:35;;;;;;;2.00;0.55;;;14.10;44.40;;;;;;5088918;28;20040;-65
2022/01/21 01:00:01;;;;;;;3.08;0.55;;;14.10;44.50;;;;;;5088940;28;20043;-65
2022/01/21 01:02:28;;;;;;;2.60;0.45;;;14.10;44.60;;;;;;5088875;28;20123;-66
2022/01/21 01:04:54;;;;;;;2.13;0.40;;;14.10;44.60;;;;;;5087574;28;20527;-66
2022/01/21 01:07:19;;;;;;;3.90;0.82;;;14.20;44.60;;;;;;5088817;28;20127;-66
2022/01/21 01:09:52;;;;;;;2.20;0.45;;;14.30;44.40;;;;;;5088600;28;20086;-64
2022/01/21 01:12:37;;;;;;;2.63;0.30;;;14.50;44.20;;;;;;5087355;28;20048;-64
2022/01/21 01:20:34;;;;;;;1.35;0.40;;;15.60;42.80;;;;;;5088413;28;20044;-65
2022/01/21 01:23:09;;;;;;;4.03;0.60;;;15.90;42.20;;;;;;5087189;28;20041;-66
2022/01/21 01:28:20;;;;;;;2.22;0.40;;;16.50;41.30;;;;;;5088247;28;20101;-64
2022/01/21 01:30:46;;;;;;;3.25;0.40;;;16.80;40.90;;;;;;5086973;28;20139;-65
2022/01/21 01:33:15;;;;;;;2.17;0.30;;;17.00;40.50;;;;;;5088256;28;20048;-66
2022/01/21 01:35:41;;;;;;;1.92;0.50;;;17.20;40.30;;;;;;5088329;28;20480;-65
2022/01/21 01:38:48;;;;;;;1.92;0.60;;;17.40;39.90;;;;;;5086897;28;20115;-66
2022/01/21 01:40:58;;;;;;;1.75;0.20;;;17.60;39.70;;;;;;5087087;28;20096;-67
2022/01/21 01:49:29;;;;;;;1.92;0.30;;;18.10;38.80;;;;;;5087719;28;20052;-68
2022/01/21 01:51:41;;;;;;;1.90;0.30;;;18.20;38.70;;;;;;5089178;28;20487;-66
2022/01/21 01:54:11;;;;;;;1.45;0.28;;;18.30;38.50;;;;;;5088228;28;20055;-67
2022/01/21 01:56:39;;;;;;;;;;;18.40;38.30;;;;;;5088733;28;20051;-67
2022/01/21 01:59:04;;;;;;;2.97;0.50;;;18.40;38.20;;;;;;5089378;28;19916;-66
2022/01/21 02:01:30;;;;;;;3.00;0.65;;;18.50;38.30;;;;;;5087743;28;20564;-67
2022/01/21 02:03:56;;;;;;;1.20;0.30;;;18.50;38.10;;;;;;5089070;28;20032;-67
2022/01/21 02:06:22;;;;;;;1.35;0.22;;;18.60;37.90;;;;;;5089129;28;20044;-67
2022/01/21 02:08:48;;;;;;;2.88;0.38;;;18.60;37.80;;;;;;5088990;28;20032;-67
2022/01/21 02:11:13;;;;;;;3.17;0.30;;;18.70;37.80;;;;;;5088709;28;20044;-67
2022/01/21 02:13:45;;;;;;;2.35;0.75;;;18.70;37.70;;;;;;5087749;28;20044;-67
2022/01/21 02:16:37;;;;;;;1.90;0.50;;;18.70;37.60;;;;;;5088994;28;20194;-65
2022/01/21 02:21:47;;;;;;;2.33;0.57;;;18.70;37.50;;;;;;5088755;28;20505;-66
2022/01/21 02:24:18;;;;;;;2.85;0.30;;;18.70;37.40;;;;;;5087669;28;20089;-66
2022/01/21 02:26:45;;;;;;;2.50;0.40;;;18.70;37.40;;;;;;5087649;28;20055;-66
2022/01/21 02:29:12;;;;;;;2.13;0.30;;;18.70;37.40;;;;;;5087708;28;20166;-65
2022/01/21 02:31:39;;;;;;;1.23;0.20;;;18.70;37.40;;;;;;5087246;28;20044;-66
2022/01/21 02:34:07;;;;;;;1.67;0.30;;;18.60;37.30;;;;;;5089113;28;20044;-66
2022/01/21 02:36:33;;;;;;;1.70;0.28;;;18.60;37.30;;;;;;5087661;28;20130;-66
2022/01/21 02:38:59;;;;;;;1.30;0.20;;;18.60;37.30;;;;;;5088682;28;20395;-65
2022/01/21 02:41:45;;;;;;;2.05;0.40;;;18.60;37.40;;;;;;5087169;28;20036;-65
2022/01/21 02:44:15;;;;;;;2.95;0.60;;;18.60;37.10;;;;;;5086863;28;20052;-67
2022/01/21 02:46:42;;;;;;;2.13;0.30;;;18.70;37.40;;;;;;5088253;28;20040;-66
2022/01/21 02:49:09;;;;;;;2.28;0.32;;;18.70;37.40;;;;;;5087075;28;20040;-66
2022/01/21 02:51:35;;;;;;;2.60;0.30;;;18.60;37.30;;;;;;5087155;28;20121;-64
2022/01/21 02:54:04;;;;;;;2.05;0.30;;;18.60;37.30;;;;;;5087133;28;20036;-66
2022/01/21 02:56:32;;;;;;;2.63;0.20;;;18.70;37.40;;;;;;5078536;28;20041;-65
2022/01/21 02:58:57;;;;;;;2.15;0.30;;;18.70;37.40;;;;;;5073461;28;20079;-65
2022/01/21 03:01:26;;;;;;;1.38;0.22;;;18.70;37.30;;;;;;5073452;28;20480;-66
2022/01/21 03:03:54;;;;;;;2.45;0.40;;;18.70;37.30;;;;;;5073122;28;20484;-66
2022/01/21 03:06:22;;;;;;;2.05;0.40;;;18.70;37.30;;;;;;5073175;28;20048;-66
2022/01/21 03:08:50;;;;;;;2.78;0.32;;;18.70;37.30;;;;;;5073170;28;20040;-66
2022/01/21 03:11:16;;;;;;;2.00;0.30;;;18.70;37.20;;;;;;5074391;28;20041;-65
2022/01/21 03:13:42;;;;;;;1.13;0.20;;;18.80;37.20;;;;;;5073044;28;20537;-64
2022/01/21 03:16:08;;;;;;;2.38;0.45;;;18.80;37.20;;;;;;5073164;28;20048;-64
2022/01/21 03:18:34;;;;;;;2.42;0.13;;;18.80;37.20;;;;;;5073162;28;20040;-66
2022/01/21 03:21:00;;;;;;;2.83;0.55;;;18.80;37.20;;;;;;5072917;28;20618;-64
2022/01/21 03:23:27;;;;;;;1.10;0.20;;;18.80;37.20;;;;;;5074586;28;20029;-66
2022/01/21 03:25:53;;;;;;;1.30;0.20;;;18.70;37.20;;;;;;5074153;28;20049;-67
2022/01/21 03:28:19;;;;;;;1.27;0.20;;;18.70;37.30;;;;;;5072624;28;20055;-64
2022/01/21 03:30:45;;;;;;;1.35;0.40;;;18.70;37.30;;;;;;5073990;28;20132;-65
2022/01/21 03:33:11;;;;;;;1.25;0.40;;;18.70;37.30;;;;;;5072625;28;20087;-66
2022/01/21 03:35:37;;;;;;;1.13;0.10;;;18.70;37.30;;;;;;5073901;28;20484;-67
2022/01/21 03:38:05;;;;;;;2.35;0.20;;;18.70;37.30;;;;;;5073863;28;20036;-67
2022/01/21 03:40:31;;;;;;;3.45;0.32;;;18.80;37.30;;;;;;5073872;28;20090;-66
2022/01/21 03:42:57;;;;;;;1.63;0.30;;;18.80;37.30;;;;;;5073772;28;20107;-67
2022/01/21 03:45:28;;;;;;;2.78;0.50;;;18.80;37.30;;;;;;5073362;28;20057;-67
2022/01/21 03:47:54;;;;;;;2.00;0.20;;;18.80;37.20;;;;;;5072607;28;20044;-67
2022/01/21 03:50:30;;;;;;;1.80;0.20;;;18.80;37.20;;;;;;5072685;28;20064;-66
2022/01/21 03:52:57;;;;;;;1.08;0.17;;;18.90;37.20;;;;;;5072297;28;20098;-67
2022/01/21 03:55:23;;;;;;;1.38;0.20;;;18.90;37.20;;;;;;5072684;28;20036;-67
2022/01/21 03:57:49;;;;;;;1.55;0.20;;;18.90;37.20;;;;;;5073398;28;20044;-64
2022/01/21 04:00:20;;;;;;;2.78;0.30;;;18.90;37.10;;;;;;5073484;28;20392;-67
2022/01/21 04:02:46;;;;;;;2.15;0.75;;;18.90;37.10;;;;;;5073339;28;20115;-67
2022/01/21 04:05:11;;;;;;;1.17;0.20;;;18.90;37.10;;;;;;5073606;28;20189;-64
2022/01/21 04:07:40;;;;;;;1.00;0.20;;;18.90;37.10;;;;;;5071367;28;20388;-67
2022/01/21 04:10:06;;;;;;;2.97;0.77;;;18.90;37.10;;;;;;5072183;28;20186;-66
2022/01/21 04:12:32;;;;;;;1.55;0.30;;;18.90;37.20;;;;;;5073128;28;20040;-65
2022/01/21 04:14:59;;;;;;;1.30;0.20;;;18.80;37.10;;;;;;5073259;28;20412;-68
2022/01/21 04:17:31;;;;;;;1.60;0.40;;;18.80;37.10;;;;;;5071782;28;20053;-67
2022/01/21 04:19:56;;;;;;;2.03;0.20;;;18.80;37.10;;;;;;5072955;28;20040;-66
2022/01/21 04:22:22;;;;;;;2.15;0.30;;;18.80;37.20;;;;;;5071771;28;20044;-67
2022/01/21 04:24:49;;;;;;;2.40;0.17;;;18.70;37.20;;;;;;5071504;28;20114;-66
2022/01/21 04:27:17;;;;;;;1.13;0.20;;;18.70;37.30;;;;;;5072939;28;20039;-67
2022/01/21 04:29:44;;;;;;;1.33;0.25;;;18.70;37.30;;;;;;5072104;28;20035;-67
2022/01/21 04:32:10;;;;;;;2.03;0.20;;;18.70;37.30;;;;;;5072823;28;20502;-67
2022/01/21 04:34:36;;;;;;;2.10;0.47;;;18.70;37.40;;;;;;5072762;28;20066;-67
2022/01/21 04:37:06;;;;;;;1.48;0.30;;;18.70;37.40;;;;;;5071711;28;20423;-68
2022/01/21 04:39:37;;;;;;;2.92;0.20;;;18.70;37.40;;;;;;5072726;28;20047;-67
2022/01/21 04:47:46;;;;;;;2.13;0.25;;;18.70;37.40;;;;;;5130213;28;20043;-67
2022/01/21 04:50:15;;;;;;;2.72;0.13;;;18.70;37.40;;;;;;5129120;28;20043;-68
2022/01/21 04:52:41;;;;;;;1.15;0.20;;;18.70;37.30;;;;;;5128989;28;20039;-67
2022/01/21 04:55:08;;;;;;;1.58;0.20;;;18.70;37.30;;;;;;5128940;28;20044;-65
2022/01/21 04:57:34;;;;;;;1.25;0.38;;;18.70;37.30;;;;;;5130215;27;20471;-68
2022/01/21 05:00:00;;;;;;;2.38;0.20;;;18.70;37.30;;;;;;5130009;27;20067;-68
2022/01/21 05:02:27;;;;;;;0.98;0.20;;;18.80;37.40;;;;;;5128961;28;20103;-67
2022/01/21 05:04:53;;;;;;;1.67;0.22;;;18.80;37.30;;;;;;5128561;28;20108;-68
2022/01/21 05:07:23;;;;;;;2.30;0.22;;;18.80;37.30;;;;;;5128354;27;20051;-67
2022/01/21 05:09:48;;;;;;;1.67;0.20;;;18.80;37.30;;;;;;5127761;28;20088;-67
2022/01/21 05:12:19;;;;;;;1.73;0.40;;;18.80;37.30;;;;;;5128038;28;20416;-67
2022/01/21 05:17:26;;;;;;;0.65;0.20;;;18.80;37.20;;;;;;5089355;27;20774;-68
2022/01/21 05:19:52;;;;;;;2.42;0.30;;;18.80;37.40;;;;;;5088098;28;20044;-67
2022/01/21 05:22:18;;;;;;;2.67;0.40;;;18.80;37.30;;;;;;5087965;28;20044;-67
2022/01/21 05:24:44;;;;;;;1.42;0.20;;;18.80;37.30;;;;;;5088106;28;20055;-67
2022/01/21 05:27:12;;;;;;;1.73;0.30;;;18.80;37.30;;;;;;5088230;28;20119;-67
2022/01/21 05:29:41;;;;;;;1.50;0.30;;;18.80;37.30;;;;;;5088250;28;20106;-67
2022/01/21 05:32:08;;;;;;;2.95;0.20;;;18.70;37.30;;;;;;5089095;28;20434;-67
2022/01/21 05:34:34;;;;;;;2.03;0.40;;;18.70;37.20;;;;;;5087839;28;20040;-67
2022/01/21 05:37:03;;;;;;;2.78;0.43;;;18.80;37.30;;;;;;5089208;28;20083;-65
2022/01/21 05:39:28;;;;;;;0.70;0.10;;;18.70;37.20;;;;;;5087826;28;20037;-66
2022/01/21 05:41:55;;;;;;;1.70;0.30;;;18.80;37.20;;;;;;5087984;28;20094;-67
2022/01/21 05:47:10;;;;;;;1.67;0.20;;;18.80;37.20;;;;;;5089271;28;20766;-65
2022/01/21 05:49:37;;;;;;;1.85;0.45;;;18.80;37.30;;;;;;5088388;28;20040;-64
2022/01/21 05:52:10;;;;;;;2.55;0.30;;;18.70;37.20;;;;;;5088043;28;20036;-67
2022/01/21 05:54:36;;;;;;;1.35;0.20;;;18.70;37.20;;;;;;5089377;28;20094;-65
2022/01/21 05:57:06;;;;;;;1.55;0.20;;;18.70;37.30;;;;;;5105130;28;20079;-65
2022/01/21 05:59:32;;;;;;;1.70;0.20;;;18.70;37.30;;;;;;5089400;28;20036;-65
2022/01/21 06:01:58;;;;;;;2.78;0.20;;;18.60;37.30;;;;;;5087871;28;20047;-67
2022/01/21 06:04:24;;;;;;;1.85;0.30;;;18.60;37.40;;;;;;5087972;28;20040;-66
2022/01/21 06:06:49;;;;;;;2.53;0.52;;;18.60;37.40;;;;;;5089025;28;20140;-65
2022/01/21 06:09:18;;;;;;;0.98;0.13;;;18.60;37.40;;;;;;5087788;28;20434;-64
2022/01/21 06:11:44;;;;;;;1.40;0.20;;;18.50;37.40;;;;;;5089047;28;20032;-66
2022/01/21 06:14:09;;;;;;;1.00;0.30;;;18.50;37.60;;;;;;5087946;28;20116;-67
2022/01/21 06:16:38;;;;;;;1.40;0.30;;;18.50;37.60;;;;;;5087538;28;20051;-66
2022/01/21 06:19:03;;;;;;;2.50;0.38;;;18.40;37.60;;;;;;5087526;28;20115;-66
2022/01/21 06:21:32;;;;;;;1.88;0.22;;;18.40;37.60;;;;;;5089057;28;20111;-67
2022/01/21 06:23:57;;;;;;;1.55;0.20;;;18.40;37.60;;;;;;5088687;28;20047;-65
2022/01/21 06:26:23;;;;;;;1.00;0.15;;;18.30;37.60;;;;;;5087380;28;20040;-65
2022/01/21 06:28:49;;;;;;;1.52;0.30;;;18.30;37.70;;;;;;5088660;28;20086;-65
2022/01/21 06:31:14;;;;;;;1.35;0.20;;;18.30;37.80;;;;;;5088595;28;20040;-66
2022/01/21 06:33:40;;;;;;;2.15;0.40;;;18.30;37.80;;;;;;5088678;28;20384;-67
2022/01/21 06:36:06;;;;;;;3.22;0.28;;;18.20;37.80;;;;;;5087251;28;20051;-66
2022/01/21 06:38:32;;;;;;;3.13;0.40;;;18.20;37.90;;;;;;5087171;28;20040;-65
2022/01/21 06:40:57;;;;;;;1.42;0.30;;;18.20;37.90;;;;;;5088547;28;20055;-66
2022/01/21 06:43:23;;;;;;;1.50;0.13;;;18.20;37.90;;;;;;5085579;28;20039;-69
2022/01/21 06:45:49;;;;;;;3.05;0.25;;;18.20;37.90;;;;;;5085463;28;20502;-76
2022/01/21 06:48:14;;;;;;;5.05;0.40;;;18.20;38.90;;;;;;5085778;28;20133;-80
2022/01/21 06:50:42;;;;;;;1.67;0.20;;;18.20;39.10;;;;;;5087425;28;20448;-70
2022/01/21 06:53:11;;;;;;;0.88;0.20;;;18.20;39.40;;;;;;5084578;28;20353;-81
2022/01/21 06:55:57;;;;;;;3.67;0.20;;;18.10;39.80;;;;;;5079520;28;20392;-74
2022/01/21 06:58:22;;;;;;;3.42;0.20;;;18.20;40.10;;;;;;5070091;28;20071;-70
2022/01/21 07:00:48;;;;;;;1.55;0.20;;;18.30;40.10;;;;;;5070739;28;20480;-74
2022/01/21 07:03:14;;;;;;;2.92;0.20;;;18.30;40.00;;;;;;5063061;28;20053;-77
2022/01/21 07:05:40;;;;;;;2.33;0.20;;;18.50;39.80;;;;;;5046749;28;20121;-75
2022/01/21 07:08:08;;;;;;;3.15;0.38;;;18.70;39.10;;;;;;5060708;28;20044;-72
2022/01/21 07:10:34;;;;;;;1.27;0.20;;;18.90;38.50;;;;;;5059619;28;20048;-71
2022/01/21 07:13:00;;;;;;;1.70;0.30;;;19.20;38.00;;;;;;5063765;28;20586;-70
2022/01/21 07:15:26;;;;;;;1.17;0.20;;;19.30;37.40;;;;;;5076142;28;20041;-83
2022/01/21 07:17:53;;;;;;;1.90;0.30;;;19.40;37.20;;;;;;5064848;28;20032;-70
2022/01/21 07:20:20;;;;;;;1.00;0.17;;;19.60;36.80;;;;;;5067266;28;20036;-82
2022/01/21 07:22:49;;;;;;;3.50;0.40;;;19.60;36.30;;;;;;5064784;28;20040;-70
2022/01/21 07:25:18;;;;;;;2.35;0.28;;;19.70;36.30;;;;;;5060830;28;20063;-77
2022/01/21 07:27:44;;;;;;;2.92;0.22;;;19.80;36.40;;;;;;5064904;28;20399;-69
2022/01/21 07:30:12;;;;;;;6.32;0.40;;;19.90;35.90;;;;;;5066333;28;20136;-71
2022/01/21 07:32:39;;;;;;;3.35;0.38;;;19.90;35.40;;;;;;5052257;28;20546;-73
2022/01/21 07:35:07;;;;;;;3.00;0.55;;;19.90;35.00;;;;;;5053523;28;20075;-71
2022/01/21 07:37:33;;;;;;;2.88;0.45;;;19.80;34.60;;;;;;5052721;28;20044;-72
2022/01/21 07:39:58;;;;;;;4.60;0.40;;;19.80;34.50;;;;;;5057644;28;20127;-71
2022/01/21 07:42:25;;;;;;;2.97;0.50;;;19.70;34.20;;;;;;5054768;28;20140;-74
2022/01/21 07:44:50;;;;;;;4.35;0.40;;;19.70;34.20;;;;;;5056070;28;20859;-70
2022/01/21 07:47:16;;;;;;;2.53;0.40;;;19.60;34.10;;;;;;5068182;28;20095;-67
2022/01/21 07:49:42;;;;;;;3.47;0.40;;;19.60;33.80;;;;;;5051263;28;20032;-66
2022/01/21 07:52:08;;;;;;;4.20;0.55;;;19.60;33.90;;;;;;5064736;28;20079;-67
2022/01/21 07:54:37;;;;;;;1.90;0.40;;;19.70;34.00;;;;;;5069320;28;20116;-69
2022/01/21 07:57:03;;;;;;;4.10;0.50;;;19.70;33.80;;;;;;5055588;28;20677;-69
2022/01/21 07:59:29;;;;;;;3.20;0.43;;;19.70;34.20;;;;;;5055194;28;20041;-68
2022/01/21 08:01:57;;;;;;;2.38;0.35;;;19.70;34.50;;;;;;5053838;28;20044;-68
2022/01/21 08:04:23;;;;;;;3.88;0.30;;;19.90;35.00;;;;;;5051884;28;20048;-65
2022/01/21 08:06:49;;;;;;;1.63;0.40;;;20.00;35.30;;;;;;5057721;28;20106;-66
2022/01/21 08:09:14;;;;;;;3.33;0.32;;;20.00;35.50;;;;;;5053708;28;20037;-66
2022/01/21 08:11:40;;;;;;;4.75;0.60;;;20.20;35.60;;;;;;5049877;28;20046;-69
2022/01/21 08:14:09;;;;;;;2.75;0.50;;;20.20;35.70;;;;;;5057150;28;20033;-71
2022/01/21 08:16:36;;;;;;;1.98;0.30;;;20.30;36.00;;;;;;5053173;28;20029;-71
2022/01/21 08:19:03;;;;;;;2.20;0.30;;;20.40;36.00;;;;;;5047252;28;20119;-74
2022/01/21 08:21:29;;;;;;;5.43;0.40;;;20.40;36.10;;;;;;5048155;28;20052;-70
2022/01/21 08:23:55;;;;;;;6.53;0.60;;;20.50;36.10;;;;;;5054930;28;20040;-72
2022/01/21 08:26:24;;;;;;;1.98;0.40;;;20.60;36.00;;;;;;5068417;28;20036;-71
2022/01/21 08:28:51;;;;;;;2.53;0.30;;;20.70;36.20;;;;;;5054820;28;20971;-71
2022/01/21 08:31:17;;;;;;;4.25;0.20;;;20.70;36.20;;;;;;5052972;28;20048;-67
2022/01/21 08:33:43;;;;;;;4.63;0.30;;;20.80;36.30;;;;;;5066929;28;20831;-73
2022/01/21 08:36:10;;;;;;;2.60;0.30;;;20.80;36.40;;;;;;5068861;28;20048;-68
2022/01/21 08:38:36;;;;;;;6.35;0.35;;;20.80;36.60;;;;;;5054974;28;20033;-72
2022/01/21 08:41:02;;;;;;;2.85;0.30;;;20.80;36.60;;;;;;5051673;28;20045;-66
2022/01/21 08:43:30;;;;;;;4.22;0.60;;;20.80;36.60;;;;;;5054102;28;20080;-68
2022/01/21 08:45:56;;;;;;;4.32;0.28;;;20.80;36.70;;;;;;5047336;28;20060;-70
2022/01/21 08:48:22;;;;;;;2.10;0.30;;;20.90;36.80;;;;;;5049255;28;20425;-71
2022/01/21 08:50:49;;;;;;;4.13;0.35;;;20.90;36.80;;;;;;5047430;28;20043;-69
2022/01/21 08:53:46;;;;;;;8.73;0.63;;;21.00;36.80;;;;;;5052502;28;20087;-69
2022/01/21 08:56:00;;;;;;;4.07;0.30;;;21.00;36.90;;;;;;5050818;28;20446;-69
2022/01/21 08:58:29;;;;;;;3.55;0.35;;;21.10;36.80;;;;;;5055068;28;20044;-69
2022/01/21 09:00:54;;;;;;;5.95;0.55;;;21.20;36.60;;;;;;5052961;28;20524;-67
2022/01/21 09:03:20;;;;;;;1.60;0.40;;;21.30;36.50;;;;;;5066803;28;20082;-72
2022/01/21 09:05:49;;;;;;;4.35;0.68;;;21.40;36.50;;;;;;5050447;28;20044;-70
2022/01/21 09:08:23;;;;;;;4.97;0.50;;;21.40;36.40;;;;;;5050417;28;20688;-69
2022/01/21 09:10:49;;;;;;;1.98;0.20;;;21.40;36.30;;;;;;5044942;28;20048;-70
2022/01/21 09:13:15;;;;;;;3.63;0.35;;;21.30;36.40;;;;;;5049008;28;20082;-70
2022/01/21 09:15:41;;;;;;;3.70;0.22;;;21.20;36.50;;;;;;5051786;28;20699;-71
2022/01/21 09:18:07;;;;;;;3.10;0.43;;;21.10;36.60;;;;;;5050674;28;20033;-75
2022/01/21 09:20:37;;;;;;;3.45;0.50;;;21.00;36.40;;;;;;5064923;28;20075;-71
2022/01/21 09:23:05;;;;;;;3.13;0.38;;;20.80;35.30;;;;;;5049144;28;20040;-71
2022/01/21 09:25:31;;;;;;;4.75;0.70;;;20.60;35.00;;;;;;5065825;28;20041;-72
2022/01/21 09:27:58;;;;;;;3.35;0.60;;;20.50;35.10;;;;;;5066991;28;20243;-68
2022/01/21 09:30:28;;;;;;;3.50;0.65;;;20.30;35.20;;;;;;5045927;28;20051;-70
2022/01/21 09:32:54;;;;;;;3.83;0.65;;;20.20;35.20;;;;;;5050185;28;20570;-70
2022/01/21 09:35:20;;;;;;;4.45;0.60;;;20.00;35.10;;;;;;5050449;28;20048;-71
2022/01/21 09:37:46;;;;;;;3.72;0.43;;;19.90;35.70;;;;;;5050210;28;20036;-71
2022/01/21 09:40:12;;;;;;;3.42;0.45;;;19.80;36.30;;;;;;5053004;28;20033;-66
2022/01/21 09:42:38;;;;;;;5.93;0.47;;;19.70;36.70;;;;;;5053859;28;20074;-70
2022/01/21 09:45:09;;;;;;;6.25;0.73;;;19.50;37.20;;;;;;5056435;28;20115;-67
2022/01/21 09:47:48;;;;;;;5.43;0.60;;;19.30;37.40;;;;;;5069518;28;20087;-66
2022/01/21 09:50:17;;;;;;;3.75;0.40;;;19.20;38.00;;;;;;5055135;28;20539;-72
2022/01/21 09:52:46;;;;;;;4.67;0.60;;;19.10;38.40;;;;;;5052502;28;20044;-65
2022/01/21 09:55:13;;;;;;;4.82;0.60;;;18.90;38.10;;;;;;5067161;28;20574;-65
2022/01/21 09:57:41;;;;;;;3.90;0.60;;;18.90;38.20;;;;;;5053114;28;20048;-64
2022/01/21 10:00:08;;;;;;;3.90;0.73;;;18.80;38.50;;;;;;5053656;28;20048;-65
2022/01/21 10:02:35;;;;;;;3.55;0.60;;;18.70;38.60;;;;;;5053766;28;20546;-65
2022/01/21 10:05:04;;;;;;;4.03;0.40;;;18.60;38.80;;;;;;5049119;28;20045;-68
2022/01/21 10:07:31;;;;;;;3.22;0.57;;;18.50;39.00;;;;;;5055598;28;20049;-68
2022/01/21 10:10:00;;;;;;;6.47;0.80;;;18.40;39.20;;;;;;5056773;28;20036;-70
2022/01/21 10:12:25;;;;;;;5.47;0.60;;;18.30;39.60;;;;;;5053289;28;20032;-67
2022/01/21 10:14:51;;;;;;;4.22;0.88;;;18.30;40.00;;;;;;5054955;28;20037;-68
2022/01/21 10:17:17;;;;;;;6.07;0.50;;;18.20;40.30;;;;;;5053742;28;20060;-69
2022/01/21 10:19:45;;;;;;;6.43;0.77;;;18.20;40.50;;;;;;5051854;28;20033;-69
2022/01/21 10:22:19;;;;;;;6.28;0.77;;;18.10;40.50;;;;;;5054851;28;20047;-67
2022/01/21 10:25:05;;;;;;;6.43;0.63;;;18.10;41.40;;;;;;5046441;28;20069;-70
2022/01/21 10:27:35;;;;;;;4.53;0.60;;;18.10;42.20;;;;;;5052969;28;20558;-69
2022/01/21 10:30:08;;;;;;;6.30;0.85;;;18.10;42.20;;;;;;5045393;28;20124;-70
2022/01/21 10:32:39;;;;;;;2.17;0.60;;;18.00;42.30;;;;;;5050211;28;20805;-72
2022/01/21 10:38:27;;;;;;;5.55;0.52;;;18.00;42.30;;;;;;5103733;27;20431;-68
2022/01/21 10:41:04;;;;;;;4.82;0.57;;;17.90;42.40;;;;;;5102039;28;20052;-72
2022/01/21 10:43:31;;;;;;;3.17;0.50;;;17.90;42.60;;;;;;5102811;28;20052;-67
2022/01/21 10:45:58;;;;;;;2.85;0.60;;;17.90;42.50;;;;;;5096358;28;20201;-70
2022/01/21 10:48:28;;;;;;;3.17;0.55;;;17.90;42.70;;;;;;5098995;28;20046;-70
2022/01/21 10:51:19;;;;;;;9.55;1.67;;;17.80;42.90;;;;;;5103283;28;20051;-69
2022/01/21 10:53:45;;;;;;;;;;;17.90;43.20;;;;;;5085971;28;20120;-67
2022/01/21 10:56:16;;;;;;;3.97;0.52;;;17.80;43.30;;;;;;5101464;28;20022;-71
2022/01/21 10:58:44;;;;;;;4.53;0.63;;;17.80;43.10;;;;;;5097825;28;20519;-64
2022/01/21 11:01:16;;;;;;;4.97;0.55;;;17.80;43.20;;;;;;5100463;27;20074;-73
2022/01/21 11:04:05;;;;;;;7.60;0.98;;;17.80;43.30;;;;;;5104886;28;20042;-70
2022/01/21 11:06:42;;;;;;;4.97;0.57;;;17.80;43.70;;;;;;5105045;28;20051;-73
2022/01/21 11:09:25;;;;;;;3.70;0.65;;;17.80;43.70;;;;;;5104274;28;20079;-63
2022/01/21 11:14:58;;;;;;;7.75;1.83;;;17.80;42.70;;;;;;5066086;27;21708;-65
2022/01/21 11:17:24;;;;;;;6.40;1.17;;;17.70;42.40;;;;;;5081355;28;20053;-63
2022/01/21 11:20:13;;;;;;;8.75;2.08;;;17.60;42.40;;;;;;5086117;28;20037;-63
2022/01/21 11:22:57;;;;;;;9.75;2.45;;;17.60;42.50;;;;;;5050131;28;20370;-63
2022/01/21 11:28:38;;;;;;;7.78;1.85;;;17.60;42.80;;;;;;5073166;27;20476;-70
2022/01/21 11:31:04;;;;;;;7.00;1.60;;;17.60;42.90;;;;;;5089298;28;20052;-73
2022/01/21 11:33:30;;;;;;;8.40;1.58;;;17.60;42.80;;;;;;5096150;28;20055;-69
2022/01/21 11:35:56;;;;;;;6.80;1.60;;;17.70;42.90;;;;;;5066547;28;20532;-69
2022/01/21 11:38:24;;;;;;;8.63;1.85;;;17.80;43.10;;;;;;5095906;28;20083;-66
2022/01/21 11:40:51;;;;;;;6.63;1.70;;;17.90;42.90;;;;;;5048380;28;20071;-67
2022/01/21 11:43:17;;;;;;;13.43;2.15;;;18.00;42.80;;;;;;5092212;28;20743;-68
2022/01/21 11:51:32;;;;;;;6.88;1.65;;;18.50;42.50;;;;;;5104847;27;1153163;-67
2022/01/21 12:01:59;;;;;;;7.40;1.20;;;18.60;42.10;;;;;;5058854;27;20895;-67
2022/01/21 12:13:06;;;;;;;7.45;1.17;;;19.10;42.70;;;;;;5060431;27;20432;-65
2022/01/21 12:21:27;;;;;;;3.88;0.70;;;19.00;43.40;;;;;;5093288;28;20127;-66
2022/01/21 12:23:53;;;;;;;6.07;0.90;;;18.90;44.00;;;;;;5096002;28;20050;-67
2022/01/21 12:32:06;;;;;;;5.10;0.55;;;18.70;43.70;;;;;;5060476;28;20458;-69
2022/01/21 12:35:08;;;;;;;4.05;0.77;;;18.60;44.10;;;;;;5031812;28;20049;-64
2022/01/21 12:38:03;;;;;;;7.78;0.63;;;18.50;44.40;;;;;;5038538;28;20040;-66
2022/01/21 12:40:32;;;;;;;5.70;0.60;;;18.40;44.30;;;;;;5039461;28;20504;-63
2022/01/21 12:42:58;;;;;;;4.60;0.70;;;18.30;44.60;;;;;;5044808;28;20072;-63
2022/01/21 12:45:24;;;;;;;8.43;0.40;;;18.30;44.70;;;;;;5042664;28;20120;-62
2022/01/21 12:47:53;;;;;;;3.55;0.60;;;18.30;44.90;;;;;;5027758;28;20033;-63
2022/01/21 12:50:44;;;;;;;8.35;0.50;;;18.30;45.80;;;;;;5022895;28;20441;-62
2022/01/21 12:53:26;;;;;;;4.45;0.60;;;18.30;45.60;;;;;;5022140;28;20054;-61
2022/01/21 12:55:55;;;;;;;3.15;0.60;;;18.20;46.10;;;;;;5024359;28;20180;-62
2022/01/21 12:58:25;;;;;;;4.35;0.40;;;18.20;46.00;;;;;;5032682;28;20099;-62
2022/01/21 13:01:09;;;;;;;3.87;0.40;;;18.20;46.50;;;;;;5046080;28;20132;-63
2022/01/21 13:03:49;;;;;;;5.65;0.40;;;18.20;47.10;;;;;;5031390;28;20040;-62
2022/01/21 13:11:54;;;;;;;1.67;0.20;;;18.20;46.70;;;;;;5077844;27;20510;-61
2022/01/21 13:14:36;;;;;;;5.03;0.60;;;18.20;46.60;;;;;;5074273;28;20048;-62
2022/01/21 13:17:06;;;;;;;2.45;0.30;;;18.20;46.50;;;;;;5074264;28;20048;-64
2022/01/21 13:19:47;;;;;;;2.58;0.47;;;18.20;46.50;;;;;;5073151;28;20505;-62
2022/01/21 13:22:16;;;;;;;2.05;0.20;;;18.10;46.60;;;;;;5073460;28;20105;-62
2022/01/21 13:25:09;;;;;;;2.53;0.20;;;18.10;47.20;;;;;;5071032;28;20037;-62
2022/01/21 13:27:53;;;;;;;3.53;0.50;;;18.10;46.70;;;;;;5065939;28;20036;-62
2022/01/21 13:30:23;;;;;;;1.95;0.35;;;18.10;46.50;;;;;;5074526;28;20395;-62
2022/01/21 13:33:13;;;;;;;7.03;0.50;;;18.10;46.70;;;;;;5072903;28;20051;-62
2022/01/21 13:35:44;;;;;;;2.70;0.47;;;18.10;46.80;;;;;;5070859;28;20476;-62
2022/01/21 13:40:51;;;;;;;3.38;0.40;;;18.10;46.70;;;;;;5072641;27;21155;-62
2022/01/21 13:43:23;;;;;;;3.90;0.52;;;18.10;46.90;;;;;;5077286;28;20059;-62
2022/01/21 13:48:35;;;;;;;2.33;0.38;;;18.10;47.00;;;;;;5082539;27;20502;-62
2022/01/21 13:51:07;;;;;;;2.33;0.40;;;18.10;47.00;;;;;;5073126;28;20090;-64
2022/01/21 13:53:33;;;;;;;3.58;0.50;;;18.00;46.90;;;;;;5051351;28;20395;-63
2022/01/21 13:56:03;;;;;;;2.10;0.52;;;18.00;47.00;;;;;;5057158;28;20040;-64
2022/01/21 13:58:30;;;;;;;3.95;0.30;;;18.00;47.20;;;;;;5051512;28;20044;-72
2022/01/21 14:03:39;;;;;;;1.98;0.45;;;18.00;47.10;;;;;;5054137;27;20362;-67
2022/01/21 14:08:50;;;;;;;4.05;0.30;;;18.00;46.90;;;;;;5059431;27;20430;-65
2022/01/21 14:11:41;;;;;;;2.83;0.40;;;18.00;46.80;;;;;;5058105;28;20053;-66
2022/01/21 14:14:09;;;;;;;3.80;0.52;;;18.00;46.80;;;;;;5059952;28;20033;-66
2022/01/21 14:16:39;;;;;;;2.47;0.22;;;17.90;47.40;;;;;;5058838;28;20072;-64
2022/01/21 14:19:10;;;;;;;5.30;0.30;;;17.90;46.60;;;;;;5055562;28;20496;-66
2022/01/21 14:21:38;;;;;;;4.13;0.43;;;17.90;46.70;;;;;;5055570;28;20098;-67
2022/01/21 14:24:13;;;;;;;1.98;0.30;;;17.90;46.70;;;;;;5062219;28;20117;-67
2022/01/21 14:35:10;;;;;;;4.72;0.40;;;17.70;46.60;;;;;;5126517;27;1159444;-67
2022/01/21 14:37:39;;;;;;;3.42;0.40;;;17.70;46.60;;;;;;5112262;27;20057;-70
2022/01/21 14:40:06;;;;;;;5.13;0.90;;;17.70;46.60;;;;;;5135402;27;20042;-71
2022/01/21 14:42:32;;;;;;;6.53;0.90;;;17.70;46.30;;;;;;5123836;27;20070;-71
2022/01/21 14:45:15;;;;;;;8.10;0.43;;;17.70;46.20;;;;;;5123833;27;20105;-70